sensor_id;sensor_type;location;lat;lon;timestamp;P1;durP1;ratioP1;P2;durP2;ratioP2
7057;SDS011;3570;43.080;25.628;2023-02-01T00:01:33;8.40;;;6.10;;
7057;SDS011;3570;43.080;25.628;2023-02-01T00:04:18;9.17;;;6.57;;
7057;SDS011;3570;43.080;25.628;2023-02-01T00:07:02;6.43;;;5.83;;
7057;SDS011;3570;43.080;25.628;2023-02-01T00:09:46;9.07;;;6.30;;
7057;SDS011;3570;43.080;25.628;2023-02-01T00:12:30;6.73;;;5.10;;
7057;SDS011;3570;43.080;25.628;2023-02-01T00:15:14;6.93;;;5.67;;
7057;SDS011;3570;43.080;25.628;2023-02-01T00:17:58;7.43;;;5.70;;
7057;SDS011;3570;43.080;25.628;2023-02-01T00:20:46;9.67;;;5.20;;
7057;SDS011;3570;43.080;25.628;2023-02-01T00:23:34;7.20;;;5.33;;
7057;SDS011;3570;43.080;25.628;2023-02-01T00:26:28;9.20;;;5.43;;
7057;SDS011;3570;43.080;25.628;2023-02-01T00:29:19;6.10;;;4.73;;
7057;SDS011;3570;43.080;25.628;2023-02-01T00:32:04;8.27;;;5.80;;
7057;SDS011;3570;43.080;25.628;2023-02-01T00:34:47;7.00;;;6.07;;
7057;SDS011;3570;43.080;25.628;2023-02-01T00:37:31;12.70;;;6.33;;
7057;SDS011;3570;43.080;25.628;2023-02-01T00:40:15;9.83;;;6.77;;
7057;SDS011;3570;43.080;25.628;2023-02-01T00:42:59;8.63;;;6.13;;
7057;SDS011;3570;43.080;25.628;2023-02-01T00:45:45;8.73;;;6.07;;
7057;SDS011;3570;43.080;25.628;2023-02-01T00:48:29;8.63;;;6.40;;
7057;SDS011;3570;43.080;25.628;2023-02-01T00:51:15;7.53;;;6.03;;
7057;SDS011;3570;43.080;25.628;2023-02-01T00:54:03;7.33;;;5.57;;
7057;SDS011;3570;43.080;25.628;2023-02-01T00:56:47;7.70;;;5.83;;
7057;SDS011;3570;43.080;25.628;2023-02-01T00:59:31;6.63;;;5.67;;
7057;SDS011;3570;43.080;25.628;2023-02-01T01:02:15;8.10;;;5.43;;
7057;SDS011;3570;43.080;25.628;2023-02-01T01:04:59;10.67;;;5.97;;
7057;SDS011;3570;43.080;25.628;2023-02-01T01:07:43;6.70;;;5.40;;
7057;SDS011;3570;43.080;25.628;2023-02-01T01:10:27;7.07;;;5.20;;
7057;SDS011;3570;43.080;25.628;2023-02-01T01:13:11;7.10;;;5.70;;
7057;SDS011;3570;43.080;25.628;2023-02-01T01:15:55;7.33;;;4.70;;
7057;SDS011;3570;43.080;25.628;2023-02-01T01:18:39;9.20;;;5.10;;
7057;SDS011;3570;43.080;25.628;2023-02-01T01:21:23;4.50;;;4.07;;
7057;SDS011;3570;43.080;25.628;2023-02-01T01:24:08;6.33;;;4.73;;
7057;SDS011;3570;43.080;25.628;2023-02-01T01:26:52;6.30;;;4.87;;
7057;SDS011;3570;43.080;25.628;2023-02-01T01:29:36;7.33;;;4.87;;
7057;SDS011;3570;43.080;25.628;2023-02-01T01:32:20;7.87;;;4.93;;
7057;SDS011;3570;43.080;25.628;2023-02-01T01:35:04;6.50;;;5.10;;
7057;SDS011;3570;43.080;25.628;2023-02-01T01:37:49;10.10;;;5.40;;
7057;SDS011;3570;43.080;25.628;2023-02-01T01:40:33;8.10;;;5.43;;
7057;SDS011;3570;43.080;25.628;2023-02-01T01:43:18;6.53;;;4.80;;
7057;SDS011;3570;43.080;25.628;2023-02-01T01:46:05;5.73;;;4.53;;
7057;SDS011;3570;43.080;25.628;2023-02-01T01:48:56;6.53;;;5.10;;
7057;SDS011;3570;43.080;25.628;2023-02-01T01:51:44;5.97;;;4.33;;
7057;SDS011;3570;43.080;25.628;2023-02-01T01:54:35;7.10;;;5.03;;
7057;SDS011;3570;43.080;25.628;2023-02-01T01:57:29;6.13;;;4.70;;
7057;SDS011;3570;43.080;25.628;2023-02-01T02:00:21;6.60;;;4.97;;
7057;SDS011;3570;43.080;25.628;2023-02-01T02:03:40;7.00;;;5.33;;
7057;SDS011;3570;43.080;25.628;2023-02-01T02:09:16;5.37;;;4.60;;
7057;SDS011;3570;43.080;25.628;2023-02-01T02:12:00;5.27;;;4.67;;
7057;SDS011;3570;43.080;25.628;2023-02-01T02:14:44;6.67;;;5.40;;
7057;SDS011;3570;43.080;25.628;2023-02-01T02:20:52;8.17;;;4.90;;
7057;SDS011;3570;43.080;25.628;2023-02-01T02:24:54;7.40;;;4.77;;
7057;SDS011;3570;43.080;25.628;2023-02-01T02:27:11;6.87;;;4.63;;
7057;SDS011;3570;43.080;25.628;2023-02-01T02:39:21;7.43;;;5.30;;
7057;SDS011;3570;43.080;25.628;2023-02-01T02:42:28;5.90;;;4.73;;
7057;SDS011;3570;43.080;25.628;2023-02-01T02:45:42;6.27;;;4.30;;
7057;SDS011;3570;43.080;25.628;2023-02-01T02:48:57;7.30;;;4.83;;
7057;SDS011;3570;43.080;25.628;2023-02-01T02:51:55;6.27;;;4.20;;
7057;SDS011;3570;43.080;25.628;2023-02-01T02:55:06;5.23;;;4.67;;
7057;SDS011;3570;43.080;25.628;2023-02-01T02:57:53;5.27;;;4.63;;
7057;SDS011;3570;43.080;25.628;2023-02-01T03:00:57;4.57;;;4.13;;
7057;SDS011;3570;43.080;25.628;2023-02-01T03:04:00;5.93;;;4.57;;
7057;SDS011;3570;43.080;25.628;2023-02-01T03:06:52;7.20;;;4.70;;
7057;SDS011;3570;43.080;25.628;2023-02-01T03:09:37;7.03;;;4.50;;
7057;SDS011;3570;43.080;25.628;2023-02-01T03:12:23;5.87;;;4.73;;
7057;SDS011;3570;43.080;25.628;2023-02-01T03:15:31;4.53;;;3.83;;
7057;SDS011;3570;43.080;25.628;2023-02-01T03:18:30;6.60;;;4.97;;
7057;SDS011;3570;43.080;25.628;2023-02-01T03:21:26;5.40;;;4.13;;
7057;SDS011;3570;43.080;25.628;2023-02-01T03:24:24;8.13;;;4.17;;
7057;SDS011;3570;43.080;25.628;2023-02-01T03:30:22;5.70;;;4.77;;
7057;SDS011;3570;43.080;25.628;2023-02-01T03:33:14;7.07;;;4.73;;
7057;SDS011;3570;43.080;25.628;2023-02-01T03:36:09;4.63;;;4.10;;
7057;SDS011;3570;43.080;25.628;2023-02-01T03:42:01;6.33;;;4.27;;
7057;SDS011;3570;43.080;25.628;2023-02-01T03:44:51;6.13;;;4.10;;
7057;SDS011;3570;43.080;25.628;2023-02-01T03:47:47;4.70;;;4.30;;
7057;SDS011;3570;43.080;25.628;2023-02-01T03:50:35;7.33;;;4.50;;
7057;SDS011;3570;43.080;25.628;2023-02-01T03:53:22;7.90;;;4.43;;
7057;SDS011;3570;43.080;25.628;2023-02-01T03:56:08;8.87;;;5.37;;
7057;SDS011;3570;43.080;25.628;2023-02-01T03:58:55;6.53;;;4.50;;
7057;SDS011;3570;43.080;25.628;2023-02-01T04:01:42;5.13;;;4.63;;
7057;SDS011;3570;43.080;25.628;2023-02-01T04:04:26;5.67;;;4.13;;
7057;SDS011;3570;43.080;25.628;2023-02-01T04:07:10;6.30;;;4.67;;
7057;SDS011;3570;43.080;25.628;2023-02-01T04:09:55;9.93;;;5.87;;
7057;SDS011;3570;43.080;25.628;2023-02-01T04:12:40;5.27;;;4.20;;
7057;SDS011;3570;43.080;25.628;2023-02-01T04:15:24;5.93;;;4.63;;
7057;SDS011;3570;43.080;25.628;2023-02-01T04:18:08;9.17;;;5.07;;
7057;SDS011;3570;43.080;25.628;2023-02-01T04:20:52;7.87;;;4.63;;
7057;SDS011;3570;43.080;25.628;2023-02-01T04:23:36;6.27;;;4.60;;
7057;SDS011;3570;43.080;25.628;2023-02-01T04:26:20;7.50;;;4.80;;
7057;SDS011;3570;43.080;25.628;2023-02-01T04:29:05;4.90;;;4.40;;
7057;SDS011;3570;43.080;25.628;2023-02-01T04:31:48;5.87;;;5.07;;
7057;SDS011;3570;43.080;25.628;2023-02-01T04:34:33;5.33;;;4.83;;
7057;SDS011;3570;43.080;25.628;2023-02-01T04:37:17;5.83;;;5.07;;
7057;SDS011;3570;43.080;25.628;2023-02-01T04:40:01;8.50;;;6.13;;
7057;SDS011;3570;43.080;25.628;2023-02-01T04:42:47;9.47;;;5.50;;
7057;SDS011;3570;43.080;25.628;2023-02-01T04:45:31;7.00;;;5.43;;
7057;SDS011;3570;43.080;25.628;2023-02-01T04:48:15;11.17;;;5.27;;
7057;SDS011;3570;43.080;25.628;2023-02-01T04:51:00;6.70;;;5.43;;
7057;SDS011;3570;43.080;25.628;2023-02-01T04:53:44;8.53;;;5.97;;
7057;SDS011;3570;43.080;25.628;2023-02-01T04:56:28;7.80;;;5.87;;
7057;SDS011;3570;43.080;25.628;2023-02-01T04:59:12;8.17;;;5.70;;
7057;SDS011;3570;43.080;25.628;2023-02-01T05:01:56;10.20;;;6.00;;
7057;SDS011;3570;43.080;25.628;2023-02-01T05:04:40;10.43;;;6.03;;
7057;SDS011;3570;43.080;25.628;2023-02-01T05:07:24;11.43;;;6.40;;
7057;SDS011;3570;43.080;25.628;2023-02-01T05:10:08;8.77;;;6.93;;
7057;SDS011;3570;43.080;25.628;2023-02-01T05:12:52;14.37;;;7.57;;
7057;SDS011;3570;43.080;25.628;2023-02-01T05:15:55;10.50;;;6.83;;
7057;SDS011;3570;43.080;25.628;2023-02-01T05:18:39;9.73;;;7.07;;
7057;SDS011;3570;43.080;25.628;2023-02-01T05:21:23;8.47;;;7.00;;
7057;SDS011;3570;43.080;25.628;2023-02-01T05:24:08;13.77;;;7.73;;
7057;SDS011;3570;43.080;25.628;2023-02-01T05:27:04;11.60;;;8.30;;
7057;SDS011;3570;43.080;25.628;2023-02-01T05:29:48;14.47;;;9.00;;
7057;SDS011;3570;43.080;25.628;2023-02-01T05:32:32;12.90;;;8.07;;
7057;SDS011;3570;43.080;25.628;2023-02-01T05:35:17;13.57;;;8.27;;
7057;SDS011;3570;43.080;25.628;2023-02-01T05:38:00;12.40;;;7.03;;
7057;SDS011;3570;43.080;25.628;2023-02-01T05:40:44;13.30;;;9.00;;
7057;SDS011;3570;43.080;25.628;2023-02-01T05:43:33;14.97;;;8.90;;
7057;SDS011;3570;43.080;25.628;2023-02-01T05:46:18;12.93;;;9.13;;
7057;SDS011;3570;43.080;25.628;2023-02-01T05:49:02;14.87;;;8.97;;
7057;SDS011;3570;43.080;25.628;2023-02-01T05:51:47;14.20;;;9.23;;
7057;SDS011;3570;43.080;25.628;2023-02-01T05:54:30;13.90;;;9.27;;
7057;SDS011;3570;43.080;25.628;2023-02-01T05:57:14;18.03;;;9.43;;
7057;SDS011;3570;43.080;25.628;2023-02-01T05:59:59;16.67;;;10.07;;
7057;SDS011;3570;43.080;25.628;2023-02-01T06:02:43;17.43;;;9.03;;
7057;SDS011;3570;43.080;25.628;2023-02-01T06:05:27;10.90;;;7.97;;
7057;SDS011;3570;43.080;25.628;2023-02-01T06:08:11;13.10;;;7.93;;
7057;SDS011;3570;43.080;25.628;2023-02-01T06:10:57;8.90;;;7.10;;
7057;SDS011;3570;43.080;25.628;2023-02-01T06:13:42;9.63;;;7.50;;
7057;SDS011;3570;43.080;25.628;2023-02-01T06:16:26;7.73;;;6.67;;
7057;SDS011;3570;43.080;25.628;2023-02-01T06:19:11;9.03;;;6.53;;
7057;SDS011;3570;43.080;25.628;2023-02-01T06:21:55;12.53;;;6.30;;
7057;SDS011;3570;43.080;25.628;2023-02-01T06:24:39;10.43;;;5.93;;
7057;SDS011;3570;43.080;25.628;2023-02-01T06:27:24;6.23;;;5.47;;
7057;SDS011;3570;43.080;25.628;2023-02-01T06:30:09;9.90;;;7.10;;
7057;SDS011;3570;43.080;25.628;2023-02-01T06:32:53;6.23;;;5.63;;
7057;SDS011;3570;43.080;25.628;2023-02-01T06:35:37;8.47;;;5.87;;
7057;SDS011;3570;43.080;25.628;2023-02-01T06:38:21;11.07;;;6.13;;
7057;SDS011;3570;43.080;25.628;2023-02-01T06:41:05;6.50;;;4.93;;
7057;SDS011;3570;43.080;25.628;2023-02-01T06:43:52;9.23;;;6.77;;
7057;SDS011;3570;43.080;25.628;2023-02-01T06:46:36;8.97;;;6.13;;
7057;SDS011;3570;43.080;25.628;2023-02-01T06:49:20;9.97;;;6.63;;
7057;SDS011;3570;43.080;25.628;2023-02-01T06:52:05;12.60;;;7.93;;
7057;SDS011;3570;43.080;25.628;2023-02-01T06:54:49;13.60;;;7.97;;
7057;SDS011;3570;43.080;25.628;2023-02-01T06:57:33;13.87;;;8.30;;
7057;SDS011;3570;43.080;25.628;2023-02-01T07:00:19;9.80;;;7.37;;
7057;SDS011;3570;43.080;25.628;2023-02-01T07:03:03;9.07;;;5.40;;
7057;SDS011;3570;43.080;25.628;2023-02-01T07:05:47;8.43;;;6.23;;
7057;SDS011;3570;43.080;25.628;2023-02-01T07:08:32;12.70;;;7.07;;
7057;SDS011;3570;43.080;25.628;2023-02-01T07:11:18;15.17;;;7.27;;
7057;SDS011;3570;43.080;25.628;2023-02-01T07:14:02;9.00;;;6.50;;
7057;SDS011;3570;43.080;25.628;2023-02-01T07:16:46;11.87;;;6.27;;
7057;SDS011;3570;43.080;25.628;2023-02-01T07:19:30;7.47;;;4.93;;
7057;SDS011;3570;43.080;25.628;2023-02-01T07:22:18;8.27;;;6.20;;
7057;SDS011;3570;43.080;25.628;2023-02-01T07:25:02;6.50;;;4.33;;
7057;SDS011;3570;43.080;25.628;2023-02-01T07:27:46;7.40;;;5.20;;
7057;SDS011;3570;43.080;25.628;2023-02-01T07:30:30;8.03;;;5.27;;
7057;SDS011;3570;43.080;25.628;2023-02-01T07:33:14;6.93;;;5.40;;
7057;SDS011;3570;43.080;25.628;2023-02-01T07:35:59;5.07;;;4.20;;
7057;SDS011;3570;43.080;25.628;2023-02-01T07:38:45;5.20;;;4.70;;
7057;SDS011;3570;43.080;25.628;2023-02-01T07:41:32;8.40;;;5.77;;
7057;SDS011;3570;43.080;25.628;2023-02-01T07:44:16;7.00;;;5.40;;
7057;SDS011;3570;43.080;25.628;2023-02-01T07:47:06;6.83;;;5.37;;
7057;SDS011;3570;43.080;25.628;2023-02-01T07:49:50;8.17;;;5.57;;
7057;SDS011;3570;43.080;25.628;2023-02-01T07:52:33;12.90;;;4.67;;
7057;SDS011;3570;43.080;25.628;2023-02-01T07:55:17;3.67;;;3.37;;
7057;SDS011;3570;43.080;25.628;2023-02-01T07:58:01;9.87;;;5.67;;
7057;SDS011;3570;43.080;25.628;2023-02-01T08:00:45;11.67;;;6.50;;
7057;SDS011;3570;43.080;25.628;2023-02-01T08:03:49;4.67;;;3.93;;
7057;SDS011;3570;43.080;25.628;2023-02-01T08:06:35;6.50;;;4.93;;
7057;SDS011;3570;43.080;25.628;2023-02-01T08:09:19;5.67;;;4.20;;
7057;SDS011;3570;43.080;25.628;2023-02-01T08:12:03;5.70;;;3.87;;
7057;SDS011;3570;43.080;25.628;2023-02-01T08:14:48;5.90;;;4.47;;
7057;SDS011;3570;43.080;25.628;2023-02-01T08:17:32;4.57;;;3.70;;
7057;SDS011;3570;43.080;25.628;2023-02-01T08:20:16;7.40;;;4.80;;
7057;SDS011;3570;43.080;25.628;2023-02-01T08:23:01;4.00;;;3.67;;
7057;SDS011;3570;43.080;25.628;2023-02-01T08:25:46;4.37;;;3.97;;
7057;SDS011;3570;43.080;25.628;2023-02-01T08:28:30;4.63;;;4.03;;
7057;SDS011;3570;43.080;25.628;2023-02-01T08:31:16;3.57;;;3.00;;
7057;SDS011;3570;43.080;25.628;2023-02-01T08:34:02;5.97;;;3.87;;
7057;SDS011;3570;43.080;25.628;2023-02-01T08:36:52;3.60;;;3.30;;
7057;SDS011;3570;43.080;25.628;2023-02-01T08:39:41;8.97;;;4.27;;
7057;SDS011;3570;43.080;25.628;2023-02-01T08:42:27;6.83;;;3.63;;
7057;SDS011;3570;43.080;25.628;2023-02-01T08:45:29;6.00;;;3.43;;
7057;SDS011;3570;43.080;25.628;2023-02-01T08:48:14;4.70;;;3.63;;
7057;SDS011;3570;43.080;25.628;2023-02-01T08:51:00;11.30;;;4.37;;
7057;SDS011;3570;43.080;25.628;2023-02-01T08:53:49;4.63;;;3.97;;
7057;SDS011;3570;43.080;25.628;2023-02-01T08:56:34;6.53;;;3.77;;
7057;SDS011;3570;43.080;25.628;2023-02-01T08:59:18;6.07;;;4.13;;
7057;SDS011;3570;43.080;25.628;2023-02-01T09:02:02;6.20;;;4.40;;
7057;SDS011;3570;43.080;25.628;2023-02-01T09:04:46;6.13;;;4.73;;
7057;SDS011;3570;43.080;25.628;2023-02-01T09:07:30;5.30;;;3.63;;
7057;SDS011;3570;43.080;25.628;2023-02-01T09:10:15;4.80;;;3.40;;
7057;SDS011;3570;43.080;25.628;2023-02-01T09:13:00;4.60;;;3.43;;
7057;SDS011;3570;43.080;25.628;2023-02-01T09:15:44;8.17;;;3.47;;
7057;SDS011;3570;43.080;25.628;2023-02-01T09:18:28;4.77;;;3.00;;
7057;SDS011;3570;43.080;25.628;2023-02-01T09:21:13;5.30;;;3.80;;
7057;SDS011;3570;43.080;25.628;2023-02-01T09:23:58;5.53;;;4.10;;
7057;SDS011;3570;43.080;25.628;2023-02-01T09:26:42;5.23;;;4.30;;
7057;SDS011;3570;43.080;25.628;2023-02-01T09:29:26;5.63;;;4.63;;
7057;SDS011;3570;43.080;25.628;2023-02-01T09:32:10;6.30;;;3.63;;
7057;SDS011;3570;43.080;25.628;2023-02-01T09:34:54;8.00;;;5.03;;
7057;SDS011;3570;43.080;25.628;2023-02-01T09:37:38;3.33;;;2.90;;
7057;SDS011;3570;43.080;25.628;2023-02-01T09:40:22;4.67;;;3.33;;
7057;SDS011;3570;43.080;25.628;2023-02-01T09:49:26;36.07;;;5.20;;
7057;SDS011;3570;43.080;25.628;2023-02-01T09:52:12;7.00;;;3.63;;
7057;SDS011;3570;43.080;25.628;2023-02-01T09:55:00;10.00;;;4.27;;
7057;SDS011;3570;43.080;25.628;2023-02-01T10:00:49;4.67;;;3.40;;
7057;SDS011;3570;43.080;25.628;2023-02-01T10:03:38;4.30;;;3.60;;
7057;SDS011;3570;43.080;25.628;2023-02-01T10:06:29;8.20;;;4.30;;
7057;SDS011;3570;43.080;25.628;2023-02-01T10:09:25;7.47;;;3.23;;
7057;SDS011;3570;43.080;25.628;2023-02-01T10:12:48;3.40;;;3.10;;
7057;SDS011;3570;43.080;25.628;2023-02-01T10:16:01;5.83;;;3.63;;
7057;SDS011;3570;43.080;25.628;2023-02-01T10:19:03;10.13;;;5.10;;
7057;SDS011;3570;43.080;25.628;2023-02-01T10:21:57;5.30;;;3.00;;
7057;SDS011;3570;43.080;25.628;2023-02-01T10:27:57;4.33;;;3.87;;
7057;SDS011;3570;43.080;25.628;2023-02-01T10:30:46;4.77;;;3.37;;
7057;SDS011;3570;43.080;25.628;2023-02-01T10:33:49;7.50;;;5.40;;
7057;SDS011;3570;43.080;25.628;2023-02-01T10:37:00;4.73;;;3.43;;
7057;SDS011;3570;43.080;25.628;2023-02-01T10:40:10;2.70;;;2.50;;
7057;SDS011;3570;43.080;25.628;2023-02-01T10:42:57;4.27;;;3.20;;
7057;SDS011;3570;43.080;25.628;2023-02-01T10:45:45;6.47;;;3.97;;
7057;SDS011;3570;43.080;25.628;2023-02-01T10:48:29;3.03;;;2.70;;
7057;SDS011;3570;43.080;25.628;2023-02-01T10:51:16;5.37;;;3.90;;
7057;SDS011;3570;43.080;25.628;2023-02-01T10:54:04;8.30;;;3.83;;
7057;SDS011;3570;43.080;25.628;2023-02-01T10:56:57;4.40;;;3.60;;
7057;SDS011;3570;43.080;25.628;2023-02-01T10:59:42;4.60;;;2.90;;
7057;SDS011;3570;43.080;25.628;2023-02-01T11:02:27;5.77;;;3.57;;
7057;SDS011;3570;43.080;25.628;2023-02-01T11:05:15;3.07;;;2.77;;
7057;SDS011;3570;43.080;25.628;2023-02-01T11:08:02;4.67;;;3.20;;
7057;SDS011;3570;43.080;25.628;2023-02-01T11:10:47;3.87;;;3.23;;
7057;SDS011;3570;43.080;25.628;2023-02-01T11:13:40;3.87;;;3.17;;
7057;SDS011;3570;43.080;25.628;2023-02-01T11:16:29;3.73;;;3.23;;
7057;SDS011;3570;43.080;25.628;2023-02-01T11:19:16;4.03;;;3.57;;
7057;SDS011;3570;43.080;25.628;2023-02-01T11:22:01;8.93;;;4.97;;
7057;SDS011;3570;43.080;25.628;2023-02-01T11:24:45;10.77;;;4.80;;
7057;SDS011;3570;43.080;25.628;2023-02-01T11:27:30;4.60;;;4.03;;
7057;SDS011;3570;43.080;25.628;2023-02-01T11:30:17;4.40;;;3.23;;
7057;SDS011;3570;43.080;25.628;2023-02-01T11:33:07;3.90;;;3.00;;
7057;SDS011;3570;43.080;25.628;2023-02-01T11:35:57;5.00;;;2.97;;
7057;SDS011;3570;43.080;25.628;2023-02-01T11:42:00;2.90;;;2.60;;
7057;SDS011;3570;43.080;25.628;2023-02-01T11:44:47;8.43;;;3.40;;
7057;SDS011;3570;43.080;25.628;2023-02-01T11:47:38;4.70;;;2.77;;
7057;SDS011;3570;43.080;25.628;2023-02-01T11:50:32;8.03;;;3.97;;
7057;SDS011;3570;43.080;25.628;2023-02-01T11:59:52;15.23;;;6.20;;
7057;SDS011;3570;43.080;25.628;2023-02-01T12:12:11;4.57;;;3.00;;
7057;SDS011;3570;43.080;25.628;2023-02-01T12:15:15;4.67;;;2.47;;
7057;SDS011;3570;43.080;25.628;2023-02-01T12:42:43;3.37;;;2.80;;
7057;SDS011;3570;43.080;25.628;2023-02-01T12:45:53;4.77;;;2.67;;
7057;SDS011;3570;43.080;25.628;2023-02-01T12:52:26;3.57;;;3.03;;
7057;SDS011;3570;43.080;25.628;2023-02-01T13:01:40;6.27;;;3.93;;
7057;SDS011;3570;43.080;25.628;2023-02-01T13:05:18;4.33;;;3.10;;
7057;SDS011;3570;43.080;25.628;2023-02-01T13:10:40;3.17;;;2.57;;
7057;SDS011;3570;43.080;25.628;2023-02-01T13:13:31;2.60;;;2.10;;
7057;SDS011;3570;43.080;25.628;2023-02-01T13:19:16;2.77;;;2.57;;
7057;SDS011;3570;43.080;25.628;2023-02-01T13:22:06;4.80;;;4.07;;
7057;SDS011;3570;43.080;25.628;2023-02-01T13:28:47;4.20;;;3.00;;
7057;SDS011;3570;43.080;25.628;2023-02-01T13:34:42;2.53;;;2.17;;
7057;SDS011;3570;43.080;25.628;2023-02-01T13:41:28;2.50;;;2.30;;
7057;SDS011;3570;43.080;25.628;2023-02-01T13:44:16;5.57;;;2.60;;
7057;SDS011;3570;43.080;25.628;2023-02-01T13:47:12;4.87;;;3.37;;
7057;SDS011;3570;43.080;25.628;2023-02-01T13:50:13;7.20;;;3.73;;
7057;SDS011;3570;43.080;25.628;2023-02-01T13:53:11;5.50;;;3.17;;
7057;SDS011;3570;43.080;25.628;2023-02-01T13:56:06;5.07;;;2.83;;
7057;SDS011;3570;43.080;25.628;2023-02-01T13:58:59;4.97;;;3.17;;
7057;SDS011;3570;43.080;25.628;2023-02-01T14:08:11;3.07;;;2.77;;
7057;SDS011;3570;43.080;25.628;2023-02-01T14:10:58;2.70;;;2.20;;
7057;SDS011;3570;43.080;25.628;2023-02-01T14:13:42;3.20;;;2.60;;
7057;SDS011;3570;43.080;25.628;2023-02-01T14:16:26;4.07;;;2.43;;
7057;SDS011;3570;43.080;25.628;2023-02-01T14:19:24;3.73;;;2.67;;
7057;SDS011;3570;43.080;25.628;2023-02-01T14:25:15;2.43;;;2.23;;
7057;SDS011;3570;43.080;25.628;2023-02-01T14:28:01;3.07;;;2.60;;
7057;SDS011;3570;43.080;25.628;2023-02-01T14:30:56;4.13;;;3.73;;
7057;SDS011;3570;43.080;25.628;2023-02-01T14:33:42;3.97;;;2.40;;
7057;SDS011;3570;43.080;25.628;2023-02-01T14:36:27;5.53;;;2.50;;
7057;SDS011;3570;43.080;25.628;2023-02-01T14:39:32;5.33;;;2.80;;
7057;SDS011;3570;43.080;25.628;2023-02-01T14:51:18;3.73;;;3.40;;
7057;SDS011;3570;43.080;25.628;2023-02-01T14:54:04;5.50;;;2.87;;
7057;SDS011;3570;43.080;25.628;2023-02-01T14:56:52;7.30;;;4.10;;
7057;SDS011;3570;43.080;25.628;2023-02-01T14:59:37;3.47;;;3.00;;
7057;SDS011;3570;43.080;25.628;2023-02-01T15:02:23;3.67;;;3.33;;
7057;SDS011;3570;43.080;25.628;2023-02-01T15:05:20;15.13;;;3.47;;
7057;SDS011;3570;43.080;25.628;2023-02-01T15:11:05;5.33;;;3.03;;
7057;SDS011;3570;43.080;25.628;2023-02-01T15:13:54;4.00;;;2.67;;
7057;SDS011;3570;43.080;25.628;2023-02-01T15:16:41;4.07;;;3.57;;
7057;SDS011;3570;43.080;25.628;2023-02-01T15:19:28;3.70;;;2.90;;
7057;SDS011;3570;43.080;25.628;2023-02-01T15:22:18;3.10;;;2.80;;
7057;SDS011;3570;43.080;25.628;2023-02-01T15:25:03;3.83;;;2.97;;
7057;SDS011;3570;43.080;25.628;2023-02-01T15:27:47;3.57;;;3.27;;
7057;SDS011;3570;43.080;25.628;2023-02-01T15:30:33;10.97;;;3.27;;
7057;SDS011;3570;43.080;25.628;2023-02-01T15:33:18;7.80;;;3.97;;
7057;SDS011;3570;43.080;25.628;2023-02-01T15:36:08;4.40;;;3.70;;
7057;SDS011;3570;43.080;25.628;2023-02-01T15:42:09;4.67;;;3.80;;
7057;SDS011;3570;43.080;25.628;2023-02-01T15:44:55;4.47;;;4.07;;
7057;SDS011;3570;43.080;25.628;2023-02-01T15:47:39;5.10;;;3.93;;
7057;SDS011;3570;43.080;25.628;2023-02-01T15:50:25;5.80;;;4.87;;
7057;SDS011;3570;43.080;25.628;2023-02-01T15:53:20;6.37;;;4.67;;
7057;SDS011;3570;43.080;25.628;2023-02-01T15:56:07;5.80;;;3.10;;
7057;SDS011;3570;43.080;25.628;2023-02-01T15:58:52;3.97;;;3.57;;
7057;SDS011;3570;43.080;25.628;2023-02-01T16:01:40;3.60;;;3.10;;
7057;SDS011;3570;43.080;25.628;2023-02-01T16:04:25;4.00;;;3.63;;
7057;SDS011;3570;43.080;25.628;2023-02-01T16:07:29;5.20;;;4.03;;
7057;SDS011;3570;43.080;25.628;2023-02-01T16:10:26;4.23;;;3.37;;
7057;SDS011;3570;43.080;25.628;2023-02-01T16:13:10;3.70;;;3.30;;
7057;SDS011;3570;43.080;25.628;2023-02-01T16:15:56;4.13;;;3.73;;
7057;SDS011;3570;43.080;25.628;2023-02-01T16:18:40;8.13;;;4.20;;
7057;SDS011;3570;43.080;25.628;2023-02-01T16:21:25;4.20;;;3.87;;
7057;SDS011;3570;43.080;25.628;2023-02-01T16:24:09;6.10;;;4.50;;
7057;SDS011;3570;43.080;25.628;2023-02-01T16:26:53;8.40;;;4.80;;
7057;SDS011;3570;43.080;25.628;2023-02-01T16:29:37;5.97;;;4.60;;
7057;SDS011;3570;43.080;25.628;2023-02-01T16:32:21;5.53;;;4.13;;
7057;SDS011;3570;43.080;25.628;2023-02-01T16:35:10;7.60;;;4.33;;
7057;SDS011;3570;43.080;25.628;2023-02-01T16:38:05;6.83;;;4.67;;
7057;SDS011;3570;43.080;25.628;2023-02-01T16:40:56;5.67;;;4.60;;
7057;SDS011;3570;43.080;25.628;2023-02-01T16:43:41;10.03;;;5.23;;
7057;SDS011;3570;43.080;25.628;2023-02-01T16:46:26;8.07;;;5.40;;
7057;SDS011;3570;43.080;25.628;2023-02-01T16:49:25;8.20;;;5.43;;
7057;SDS011;3570;43.080;25.628;2023-02-01T16:52:13;12.37;;;7.40;;
7057;SDS011;3570;43.080;25.628;2023-02-01T16:55:00;12.60;;;7.40;;
7057;SDS011;3570;43.080;25.628;2023-02-01T16:57:44;9.73;;;6.03;;
7057;SDS011;3570;43.080;25.628;2023-02-01T17:00:29;12.33;;;7.57;;
7057;SDS011;3570;43.080;25.628;2023-02-01T17:03:14;14.80;;;8.27;;
7057;SDS011;3570;43.080;25.628;2023-02-01T17:06:01;13.80;;;7.50;;
7057;SDS011;3570;43.080;25.628;2023-02-01T17:08:55;13.40;;;8.50;;
7057;SDS011;3570;43.080;25.628;2023-02-01T17:11:42;9.73;;;6.80;;
7057;SDS011;3570;43.080;25.628;2023-02-01T17:14:26;10.80;;;7.40;;
7057;SDS011;3570;43.080;25.628;2023-02-01T17:17:10;9.87;;;6.77;;
7057;SDS011;3570;43.080;25.628;2023-02-01T17:19:54;14.00;;;8.43;;
7057;SDS011;3570;43.080;25.628;2023-02-01T17:22:39;17.60;;;11.00;;
7057;SDS011;3570;43.080;25.628;2023-02-01T17:25:23;24.43;;;12.30;;
7057;SDS011;3570;43.080;25.628;2023-02-01T17:28:14;14.20;;;8.77;;
7057;SDS011;3570;43.080;25.628;2023-02-01T17:30:58;35.10;;;16.10;;
7057;SDS011;3570;43.080;25.628;2023-02-01T17:33:42;19.13;;;10.87;;
7057;SDS011;3570;43.080;25.628;2023-02-01T17:36:27;61.97;;;26.13;;
7057;SDS011;3570;43.080;25.628;2023-02-01T17:39:12;56.17;;;25.63;;
7057;SDS011;3570;43.080;25.628;2023-02-01T17:42:17;37.23;;;16.80;;
7057;SDS011;3570;43.080;25.628;2023-02-01T17:45:09;57.60;;;24.43;;
7057;SDS011;3570;43.080;25.628;2023-02-01T17:48:04;62.40;;;25.50;;
7057;SDS011;3570;43.080;25.628;2023-02-01T17:50:50;65.93;;;28.33;;
7057;SDS011;3570;43.080;25.628;2023-02-01T17:53:37;19.73;;;11.17;;
7057;SDS011;3570;43.080;25.628;2023-02-01T17:56:22;25.97;;;12.00;;
7057;SDS011;3570;43.080;25.628;2023-02-01T17:59:08;11.33;;;6.47;;
7057;SDS011;3570;43.080;25.628;2023-02-01T18:01:52;27.03;;;13.43;;
7057;SDS011;3570;43.080;25.628;2023-02-01T18:04:38;20.37;;;9.37;;
7057;SDS011;3570;43.080;25.628;2023-02-01T18:07:22;19.63;;;9.00;;
7057;SDS011;3570;43.080;25.628;2023-02-01T18:10:06;16.77;;;8.50;;
7057;SDS011;3570;43.080;25.628;2023-02-01T18:12:53;12.47;;;7.70;;
7057;SDS011;3570;43.080;25.628;2023-02-01T18:15:38;10.90;;;7.30;;
7057;SDS011;3570;43.080;25.628;2023-02-01T18:18:22;12.60;;;7.37;;
7057;SDS011;3570;43.080;25.628;2023-02-01T18:21:07;24.70;;;9.80;;
7057;SDS011;3570;43.080;25.628;2023-02-01T18:23:51;30.17;;;16.27;;
7057;SDS011;3570;43.080;25.628;2023-02-01T18:26:37;17.70;;;11.80;;
7057;SDS011;3570;43.080;25.628;2023-02-01T18:29:21;20.47;;;13.07;;
7057;SDS011;3570;43.080;25.628;2023-02-01T18:32:05;17.03;;;9.33;;
7057;SDS011;3570;43.080;25.628;2023-02-01T18:34:49;19.73;;;11.07;;
7057;SDS011;3570;43.080;25.628;2023-02-01T18:37:33;13.33;;;7.37;;
7057;SDS011;3570;43.080;25.628;2023-02-01T18:40:18;13.40;;;8.90;;
7057;SDS011;3570;43.080;25.628;2023-02-01T18:43:04;20.87;;;12.47;;
7057;SDS011;3570;43.080;25.628;2023-02-01T18:45:48;19.73;;;11.73;;
7057;SDS011;3570;43.080;25.628;2023-02-01T18:48:31;23.03;;;12.30;;
7057;SDS011;3570;43.080;25.628;2023-02-01T18:51:16;21.30;;;12.47;;
7057;SDS011;3570;43.080;25.628;2023-02-01T18:54:07;31.47;;;17.60;;
7057;SDS011;3570;43.080;25.628;2023-02-01T18:56:52;26.43;;;15.67;;
7057;SDS011;3570;43.080;25.628;2023-02-01T18:59:36;19.63;;;11.63;;
7057;SDS011;3570;43.080;25.628;2023-02-01T19:02:20;13.27;;;8.10;;
7057;SDS011;3570;43.080;25.628;2023-02-01T19:05:06;19.27;;;9.40;;
7057;SDS011;3570;43.080;25.628;2023-02-01T19:07:51;19.17;;;9.47;;
7057;SDS011;3570;43.080;25.628;2023-02-01T19:10:35;10.00;;;7.00;;
7057;SDS011;3570;43.080;25.628;2023-02-01T19:13:21;19.10;;;11.33;;